Time;durP1;ratioP1;P1;durP2;ratioP2;P2;SDS_P1;SDS_P2;PMS_P1;PMS_P2;Temp;Humidity;BMP_temperature;BMP_pressure;BME280_temperature;BME280_humidity;BME280_pressure;Samples;Min_cycle;Max_cycle;Signal;HPM_P1;HPM_P2
2022/12/10 00:01:04;;;;;;;29.53;23.73;;;4.10;1.00;;;;;;5116629;28;20445;-45
2022/12/10 00:03:30;;;;;;;32.93;27.70;;;4.00;1.00;;;;;;5120404;28;20817;-46
2022/12/10 00:06:00;;;;;;;20.73;14.87;;;4.10;1.00;;;;;;5100791;28;20429;-45
2022/12/10 00:08:25;;;;;;;28.77;22.63;;;4.30;1.00;;;;;;5118294;28;20168;-45
2022/12/10 00:10:51;;;;;;;30.80;25.77;;;4.60;1.00;;;;;;5117291;28;21004;-47
2022/12/10 00:13:16;;;;;;;28.57;22.60;;;4.70;99.90;;;;;;5117943;28;20235;-43
2022/12/10 00:15:42;;;;;;;31.73;25.37;;;4.70;99.90;;;;;;5117722;28;20200;-44
2022/12/10 00:18:08;;;;;;;30.93;25.23;;;4.70;1.00;;;;;;5101681;28;20183;-45
2022/12/10 00:20:35;;;;;;;33.70;26.60;;;4.60;94.90;;;;;;5119544;28;20222;-46
2022/12/10 00:23:01;;;;;;;29.60;24.70;;;4.50;1.00;;;;;;5119652;28;20188;-44
2022/12/10 00:25:27;;;;;;;33.30;26.10;;;4.50;99.90;;;;;;5118713;28;20441;-45
2022/12/10 00:27:52;;;;;;;34.23;27.03;;;4.40;99.90;;;;;;5120423;28;20186;-45
2022/12/10 00:30:18;;;;;;;35.40;27.60;;;4.40;34.10;;;;;;5119390;28;20207;-45
2022/12/10 00:32:43;;;;;;;30.53;26.43;;;4.30;1.00;;;;;;5119064;28;20242;-46
2022/12/10 00:35:09;;;;;;;32.90;26.00;;;4.30;1.00;;;;;;5117598;28;20184;-44
2022/12/10 00:37:34;;;;;;;30.83;25.27;;;4.30;1.00;;;;;;5118001;28;20554;-45
2022/12/10 00:40:00;;;;;;;35.43;27.07;;;4.20;1.00;;;;;;5118321;28;20546;-45
2022/12/10 00:42:25;;;;;;;33.43;28.03;;;4.20;1.00;;;;;;5117451;28;20171;-44
2022/12/10 00:44:51;;;;;;;32.43;26.37;;;4.20;1.00;;;;;;5119040;28;20708;-46
2022/12/10 00:47:18;;;;;;;35.83;27.40;;;4.20;99.90;;;;;;5119939;28;20176;-45
2022/12/10 00:49:44;;;;;;;30.97;25.90;;;4.20;99.90;;;;;;5120970;28;20260;-48
2022/12/10 00:52:09;;;;;;;35.47;25.80;;;4.10;99.90;;;;;;5120064;28;20883;-46
2022/12/10 00:54:35;;;;;;;34.07;26.27;;;4.10;99.90;;;;;;5120299;28;20176;-45
2022/12/10 00:57:01;;;;;;;35.60;26.07;;;4.10;99.90;;;;;;5119839;28;20526;-44
2022/12/10 00:59:26;;;;;;;24.13;19.93;;;4.10;99.90;;;;;;5118954;28;20176;-45
2022/12/10 01:01:52;;;;;;;31.20;25.83;;;4.20;99.90;;;;;;5118243;28;20436;-44
2022/12/10 01:04:18;;;;;;;34.53;26.80;;;4.30;1.00;;;;;;5101233;28;20435;-45
2022/12/10 01:06:47;;;;;;;29.80;25.13;;;4.40;99.90;;;;;;5117925;28;20192;-46
2022/12/10 01:09:16;;;;;;;36.10;25.60;;;4.40;1.00;;;;;;5101738;28;20473;-44
2022/12/10 01:11:44;;;;;;;31.07;25.67;;;4.40;99.90;;;;;;5101025;28;20472;-46
2022/12/10 01:14:17;;;;;;;37.33;26.57;;;4.40;1.00;;;;;;5098770;28;20428;-46
2022/12/10 01:16:43;;;;;;;34.10;27.90;;;4.30;1.00;;;;;;5117911;28;20406;-45
2022/12/10 01:19:09;;;;;;;31.93;25.83;;;4.30;1.00;;;;;;5101660;28;20425;-44
2022/12/10 01:21:35;;;;;;;31.00;25.97;;;4.30;1.00;;;;;;5118539;28;20479;-44
2022/12/10 01:24:02;;;;;;;30.50;25.03;;;4.30;1.00;;;;;;5118477;28;20425;-44
2022/12/10 01:26:31;;;;;;;30.60;25.23;;;4.20;99.90;;;;;;5117574;28;20405;-45
2022/12/10 01:28:58;;;;;;;32.47;25.20;;;4.20;99.90;;;;;;5099500;28;20847;-45
2022/12/10 01:31:26;;;;;;;32.43;26.03;;;4.20;99.90;;;;;;5118207;28;20482;-44
2022/12/10 01:33:52;;;;;;;30.83;24.83;;;4.20;99.90;;;;;;5119462;28;20433;-46
2022/12/10 01:36:20;;;;;;;32.50;26.13;;;4.10;99.90;;;;;;5084532;28;20827;-45
2022/12/10 01:38:46;;;;;;;32.73;25.60;;;4.10;99.90;;;;;;5118592;28;20176;-46
2022/12/10 01:41:18;;;;;;;32.43;25.10;;;4.10;99.90;;;;;;5118297;28;20426;-45
2022/12/10 01:44:24;;;;;;;33.33;25.80;;;4.10;99.90;;;;;;5117897;28;20425;-44
2022/12/10 01:46:53;;;;;;;33.53;25.87;;;4.10;99.90;;;;;;5117886;28;20445;-46
2022/12/10 01:49:24;;;;;;;31.57;24.30;;;4.10;99.90;;;;;;5118722;28;20539;-45
2022/12/10 01:51:52;;;;;;;30.20;24.30;;;4.10;99.90;;;;;;5100697;28;20421;-49
2022/12/10 01:54:24;;;;;;;34.17;26.70;;;4.10;99.90;;;;;;5118128;28;20422;-44
2022/12/10 01:56:59;;;;;;;31.63;25.27;;;4.10;99.90;;;;;;5116720;28;20414;-44
2022/12/10 01:59:26;;;;;;;35.43;25.60;;;4.10;99.90;;;;;;5100107;28;20436;-43
2022/12/10 02:01:57;;;;;;;32.77;26.20;;;4.10;99.90;;;;;;5100181;28;20414;-44
2022/12/10 02:04:39;;;;;;;33.63;26.47;;;4.10;99.90;;;;;;5118606;28;20471;-46
2022/12/10 02:07:27;;;;;;;33.30;26.03;;;4.10;95.70;;;;;;5116521;28;20566;-44
2022/12/10 02:10:16;;;;;;;29.87;24.87;;;4.00;60.70;;;;;;5097411;28;20476;-45
2022/12/10 02:12:42;;;;;;;31.00;26.40;;;4.00;41.90;;;;;;5115573;28;20530;-47
2022/12/10 02:15:08;;;;;;;30.27;23.97;;;4.00;47.20;;;;;;5117267;28;20413;-46
2022/12/10 02:17:37;;;;;;;31.40;26.20;;;4.10;46.20;;;;;;5117402;28;20270;-44
2022/12/10 02:20:07;;;;;;;29.73;24.63;;;4.10;44.90;;;;;;5099098;28;20679;-43
2022/12/10 02:22:42;;;;;;;33.53;25.33;;;4.00;44.30;;;;;;5117692;28;20445;-44
2022/12/10 02:25:09;;;;;;;28.00;23.50;;;4.00;31.70;;;;;;5099820;28;20496;-44
2022/12/10 02:27:42;;;;;;;30.60;23.80;;;4.10;16.70;;;;;;5099212;28;20487;-45
2022/12/10 02:30:08;;;;;;;29.27;24.97;;;4.00;18.10;;;;;;5118309;28;20510;-45
2022/12/10 02:32:40;;;;;;;29.67;24.53;;;4.00;13.70;;;;;;5100220;28;20426;-45
2022/12/10 02:35:15;;;;;;;28.17;23.97;;;4.00;3.20;;;;;;5100474;28;20475;-48
2022/12/10 02:37:47;;;;;;;27.07;23.77;;;4.00;1.00;;;;;;5100498;28;20429;-45
2022/12/10 02:40:20;;;;;;;31.37;25.70;;;4.00;1.00;;;;;;5099382;28;20742;-46
2022/12/10 02:42:49;;;;;;;32.27;25.57;;;4.00;1.00;;;;;;5099670;28;20775;-47
2022/12/10 02:45:16;;;;;;;29.03;25.00;;;4.00;1.00;;;;;;5099371;28;20426;-46
2022/12/10 02:47:41;;;;;;;32.30;25.70;;;4.00;1.00;;;;;;5099562;28;20420;-47
2022/12/10 02:50:08;;;;;;;33.17;25.83;;;4.00;1.00;;;;;;5097003;28;20834;-46
2022/12/10 02:52:33;;;;;;;29.23;23.30;;;4.00;1.00;;;;;;5115012;28;20188;-45
2022/12/10 02:54:59;;;;;;;29.70;23.83;;;3.90;1.00;;;;;;5097628;28;20424;-44
2022/12/10 02:57:49;;;;;;;29.50;24.97;;;4.00;1.00;;;;;;5116501;28;20194;-46
2022/12/10 03:00:20;;;;;;;31.53;25.67;;;3.90;1.00;;;;;;5114323;28;20199;-47
2022/12/10 03:02:59;;;;;;;31.47;25.50;;;3.90;1.00;;;;;;5099003;28;20437;-44
2022/12/10 03:05:39;;;;;;;28.30;23.53;;;3.90;1.00;;;;;;5116501;28;20496;-45
2022/12/10 03:08:37;;;;;;;29.70;24.00;;;3.90;1.00;;;;;;5099749;28;20483;-48
2022/12/10 03:11:13;;;;;;;33.23;25.30;;;3.90;1.00;;;;;;5094705;28;20506;-48
2022/12/10 03:13:53;;;;;;;29.17;23.90;;;3.90;1.00;;;;;;5114851;28;20537;-46
2022/12/10 03:16:21;;;;;;;31.00;25.07;;;3.90;1.00;;;;;;5117140;28;20412;-46
2022/12/10 03:18:49;;;;;;;33.80;25.70;;;3.90;1.00;;;;;;5116250;28;20469;-47
2022/12/10 03:21:16;;;;;;;31.00;25.63;;;3.90;1.00;;;;;;5116400;28;20409;-45
2022/12/10 03:23:44;;;;;;;28.03;23.93;;;3.90;1.00;;;;;;5116823;28;20450;-44
2022/12/10 03:26:10;;;;;;;30.67;24.93;;;3.90;1.00;;;;;;5117496;28;20420;-46
2022/12/10 03:28:45;;;;;;;33.10;24.60;;;3.90;1.00;;;;;;5117527;28;20421;-44
2022/12/10 03:31:12;;;;;;;28.77;23.87;;;3.90;1.00;;;;;;5116816;28;20359;-44
2022/12/10 03:33:38;;;;;;;28.73;23.40;;;3.90;1.00;;;;;;5117430;28;20689;-47
2022/12/10 03:36:06;;;;;;;27.27;23.23;;;3.90;1.00;;;;;;5116851;28;20413;-46
2022/12/10 03:38:32;;;;;;;29.87;23.50;;;3.90;1.00;;;;;;5117707;28;20425;-47
2022/12/10 03:40:58;;;;;;;32.30;26.67;;;3.90;1.00;;;;;;5116412;28;20428;-45
2022/12/10 03:43:24;;;;;;;29.07;24.50;;;3.90;1.00;;;;;;5117069;28;20433;-45
2022/12/10 03:45:50;;;;;;;31.17;24.90;;;3.90;1.00;;;;;;5117361;28;20754;-47
2022/12/10 03:48:15;;;;;;;28.50;23.27;;;3.90;1.00;;;;;;5117677;28;20209;-46
2022/12/10 03:50:41;;;;;;;31.03;25.60;;;3.90;1.00;;;;;;5117488;28;20211;-45
2022/12/10 03:53:06;;;;;;;30.23;22.90;;;3.90;1.00;;;;;;5117013;28;20182;-46
2022/12/10 03:55:32;;;;;;;30.10;23.07;;;3.90;1.00;;;;;;5117619;28;20538;-44
2022/12/10 03:57:58;;;;;;;31.80;24.67;;;3.90;1.00;;;;;;5117279;28;20183;-46
2022/12/10 04:00:24;;;;;;;28.10;21.97;;;3.90;1.00;;;;;;5117249;28;20452;-45
2022/12/10 04:02:49;;;;;;;29.03;23.63;;;3.90;1.00;;;;;;5115811;28;20245;-44
2022/12/10 04:05:15;;;;;;;28.53;23.73;;;3.90;1.00;;;;;;5117052;28;20179;-46
2022/12/10 04:07:41;;;;;;;25.23;22.50;;;3.90;1.00;;;;;;5117509;28;20245;-45
2022/12/10 04:10:07;;;;;;;27.60;23.47;;;3.90;1.00;;;;;;5116638;28;20211;-44
2022/12/10 04:12:33;;;;;;;27.00;22.30;;;3.90;1.00;;;;;;5116673;28;20285;-45
2022/12/10 04:17:43;;;;;;;30.37;22.30;;;3.90;1.00;;;;;;5116646;28;20466;-44
2022/12/10 04:26:51;;;;;;;28.50;23.43;;;3.90;1.00;;;;;;5114926;28;20426;-46
2022/12/10 04:28:22;;;;;;;28.07;23.30;;;3.90;1.00;;;;;;5098453;28;20486;-45
2022/12/10 04:30:48;;;;;;;29.93;24.43;;;3.90;1.00;;;;;;5114586;28;20468;-44
2022/12/10 04:33:14;;;;;;;30.40;23.53;;;3.90;1.00;;;;;;5114576;28;20176;-44
2022/12/10 04:35:39;;;;;;;29.70;23.13;;;3.90;1.00;;;;;;5115750;28;20562;-44
2022/12/10 04:38:05;;;;;;;25.50;22.30;;;3.90;1.00;;;;;;5116314;28;20187;-44
2022/12/10 04:40:30;;;;;;;32.87;25.77;;;3.90;1.00;;;;;;5115795;28;20217;-45
2022/12/10 04:42:56;;;;;;;32.03;26.40;;;3.90;1.00;;;;;;5117355;28;20176;-49
2022/12/10 04:45:21;;;;;;;29.27;23.97;;;3.90;1.00;;;;;;5116257;28;20172;-45
2022/12/10 04:47:47;;;;;;;28.17;23.73;;;3.90;1.00;;;;;;5117650;28;20228;-43
2022/12/10 04:50:13;;;;;;;27.17;21.73;;;3.80;1.00;;;;;;5120486;28;20232;-51
2022/12/10 04:52:38;;;;;;;31.07;24.93;;;3.90;1.00;;;;;;5119818;28;20167;-46
2022/12/10 04:55:05;;;;;;;27.57;23.10;;;3.80;1.00;;;;;;5120496;28;20192;-44
2022/12/10 04:57:31;;;;;;;32.37;24.40;;;3.80;1.00;;;;;;5102513;28;20367;-45
2022/12/10 04:59:56;;;;;;;31.30;23.30;;;3.90;1.00;;;;;;5119786;28;20422;-47
2022/12/10 05:02:22;;;;;;;27.20;23.13;;;3.90;1.00;;;;;;5120497;28;20191;-44
2022/12/10 05:04:50;;;;;;;28.97;22.90;;;3.90;1.00;;;;;;5120004;28;20187;-44
2022/12/10 05:07:16;;;;;;;29.80;23.13;;;3.90;1.00;;;;;;5119833;28;20231;-47
2022/12/10 05:09:41;;;;;;;27.80;22.20;;;3.80;1.00;;;;;;5119967;28;20475;-47
2022/12/10 05:12:07;;;;;;;30.07;23.33;;;3.80;1.00;;;;;;5120373;28;20223;-45
2022/12/10 05:14:33;;;;;;;28.87;24.17;;;3.80;1.00;;;;;;5119482;28;20557;-46
2022/12/10 05:17:00;;;;;;;29.07;24.30;;;3.80;1.00;;;;;;5119842;28;20198;-44
2022/12/10 05:19:28;;;;;;;28.20;23.43;;;3.80;1.00;;;;;;5119568;28;20191;-46
2022/12/10 05:24:38;;;;;;;30.60;24.00;;;3.80;1.00;;;;;;5119033;28;20519;-48
2022/12/10 05:27:04;;;;;;;29.47;24.03;;;3.80;1.00;;;;;;5119456;28;20492;-43
2022/12/10 05:29:31;;;;;;;26.87;23.23;;;3.80;1.00;;;;;;5119939;28;20225;-45
2022/12/10 05:31:57;;;;;;;29.90;23.97;;;3.80;1.00;;;;;;5118576;28;20718;-45
2022/12/10 05:34:22;;;;;;;26.93;23.00;;;3.80;1.00;;;;;;5119788;28;20445;-45
2022/12/10 05:36:48;;;;;;;26.53;22.57;;;3.80;1.00;;;;;;5113492;28;20629;-46
2022/12/10 05:39:14;;;;;;;28.63;23.27;;;3.70;1.00;;;;;;5099002;28;20274;-45
2022/12/10 05:41:40;;;;;;;30.83;26.30;;;3.70;1.00;;;;;;5098943;28;20178;-43
2022/12/10 05:44:07;;;;;;;33.10;25.40;;;3.70;1.00;;;;;;5098343;28;20180;-45
2022/12/10 05:46:34;;;;;;;34.10;26.47;;;3.70;1.00;;;;;;5098382;28;20813;-44
2022/12/10 05:49:01;;;;;;;36.30;27.00;;;3.70;1.00;;;;;;5098738;28;20475;-44
2022/12/10 05:51:31;;;;;;;34.63;27.33;;;3.70;1.00;;;;;;5098428;28;20454;-45
2022/12/10 05:53:58;;;;;;;34.30;27.63;;;3.70;1.00;;;;;;5097820;28;20485;-49
2022/12/10 05:56:25;;;;;;;35.70;27.20;;;3.70;1.00;;;;;;5098634;28;20499;-46
2022/12/10 05:58:52;;;;;;;36.43;28.27;;;3.70;1.00;;;;;;5097253;28;20425;-45
2022/12/10 06:01:24;;;;;;;30.27;25.97;;;3.60;1.00;;;;;;5098242;28;20410;-47
2022/12/10 06:03:51;;;;;;;31.70;25.50;;;3.60;1.00;;;;;;5098300;28;20406;-45
2022/12/10 06:06:26;;;;;;;30.53;25.53;;;3.60;1.00;;;;;;5098828;28;20486;-44
2022/12/10 06:08:52;;;;;;;32.70;26.47;;;3.60;1.00;;;;;;5081303;28;20846;-45
2022/12/10 06:11:18;;;;;;;30.10;25.67;;;3.60;1.00;;;;;;5098082;28;20553;-44
2022/12/10 06:13:44;;;;;;;31.77;25.60;;;3.60;1.00;;;;;;5097241;28;20478;-47
2022/12/10 06:16:11;;;;;;;28.30;24.27;;;3.60;1.00;;;;;;5097708;28;20410;-46
2022/12/10 06:18:37;;;;;;;27.97;23.90;;;3.60;1.00;;;;;;5097116;28;20466;-45
2022/12/10 06:21:04;;;;;;;29.50;23.70;;;3.50;1.00;;;;;;5097075;28;20413;-47
2022/12/10 06:23:30;;;;;;;28.17;22.33;;;3.50;1.00;;;;;;5096144;28;20431;-45
2022/12/10 06:25:55;;;;;;;26.37;22.17;;;3.50;1.00;;;;;;5096865;28;20495;-44
2022/12/10 06:28:21;;;;;;;29.83;23.17;;;3.50;1.00;;;;;;5096669;28;20270;-46
2022/12/10 06:30:47;;;;;;;27.20;22.23;;;3.50;1.00;;;;;;5094402;28;20303;-46
2022/12/10 06:33:12;;;;;;;28.83;22.37;;;3.50;1.00;;;;;;5097623;28;20207;-45
2022/12/10 06:35:38;;;;;;;29.87;23.50;;;3.50;1.00;;;;;;5097327;28;20176;-46
2022/12/10 06:38:03;;;;;;;27.77;23.33;;;3.50;1.00;;;;;;5097330;28;20172;-44
2022/12/10 06:40:29;;;;;;;31.20;23.10;;;3.50;1.00;;;;;;5096775;28;20182;-45
2022/12/10 06:42:54;;;;;;;27.60;23.83;;;3.40;1.00;;;;;;5095032;28;20176;-47
2022/12/10 06:45:20;;;;;;;29.73;24.13;;;3.50;1.00;;;;;;5094831;28;20545;-45
2022/12/10 06:47:46;;;;;;;27.97;22.53;;;3.40;1.00;;;;;;5095556;28;20188;-46
2022/12/10 06:50:11;;;;;;;26.07;22.53;;;3.40;1.00;;;;;;5094957;28;20735;-46
2022/12/10 06:52:38;;;;;;;28.80;23.70;;;3.40;1.00;;;;;;5095442;28;20184;-45
2022/12/10 06:55:04;;;;;;;30.50;24.03;;;3.40;1.00;;;;;;5095487;28;20169;-45
2022/12/10 06:57:29;;;;;;;31.10;25.30;;;3.40;1.00;;;;;;5095951;28;20745;-44
2022/12/10 06:59:55;;;;;;;27.50;23.97;;;3.40;1.00;;;;;;5096498;28;20505;-44
2022/12/10 07:02:20;;;;;;;28.73;22.20;;;3.40;1.00;;;;;;5096235;28;20187;-44
2022/12/10 07:04:46;;;;;;;29.23;22.80;;;3.40;1.00;;;;;;5095976;28;20176;-44
2022/12/10 07:07:11;;;;;;;28.47;24.10;;;3.40;1.00;;;;;;5096647;28;20357;-45
2022/12/10 07:09:37;;;;;;;29.70;23.83;;;3.40;1.00;;;;;;5095365;28;20219;-44
2022/12/10 07:12:03;;;;;;;30.80;24.60;;;3.40;1.00;;;;;;5094986;28;20499;-44
2022/12/10 07:14:29;;;;;;;30.50;24.00;;;3.40;1.00;;;;;;5095311;28;20457;-44
2022/12/10 07:16:55;;;;;;;27.00;23.30;;;3.40;1.00;;;;;;5095177;28;20430;-46
2022/12/10 07:19:20;;;;;;;32.63;26.80;;;3.40;1.00;;;;;;5095937;28;20178;-44
2022/12/10 07:21:46;;;;;;;31.20;25.27;;;3.40;1.00;;;;;;5095326;28;20191;-44
2022/12/10 07:24:15;;;;;;;31.10;25.80;;;3.40;1.00;;;;;;5094958;28;20585;-47
2022/12/10 07:26:43;;;;;;;34.70;25.80;;;3.40;1.00;;;;;;5094042;28;20173;-44
2022/12/10 07:29:16;;;;;;;29.40;24.70;;;3.40;1.00;;;;;;5093723;28;20495;-45
2022/12/10 07:31:41;;;;;;;31.83;26.37;;;3.40;1.00;;;;;;5075208;28;20410;-48
2022/12/10 07:34:07;;;;;;;31.27;24.03;;;3.40;1.00;;;;;;5091275;28;20465;-45
2022/12/10 07:36:33;;;;;;;32.70;26.87;;;3.40;1.00;;;;;;5075934;28;20267;-46
2022/12/10 07:38:58;;;;;;;29.83;23.80;;;3.40;1.00;;;;;;5092691;28;20837;-45
2022/12/10 07:41:27;;;;;;;31.10;23.77;;;3.40;1.00;;;;;;5104650;28;20188;-45
2022/12/10 07:43:52;;;;;;;31.07;23.27;;;3.40;1.00;;;;;;5097249;28;20188;-45
2022/12/10 07:46:27;;;;;;;32.00;26.00;;;3.40;1.00;;;;;;5112627;28;20429;-45
2022/12/10 07:48:53;;;;;;;28.77;24.90;;;3.40;99.90;;;;;;5112188;28;20179;-44
2022/12/10 07:51:20;;;;;;;30.90;24.07;;;3.50;99.90;;;;;;5111776;28;20918;-45
2022/12/10 07:53:47;;;;;;;30.60;24.77;;;3.50;99.90;;;;;;5097228;28;20429;-46
2022/12/10 07:56:12;;;;;;;32.13;25.63;;;3.50;99.90;;;;;;5115515;28;20506;-45
2022/12/10 07:58:41;;;;;;;29.73;24.10;;;3.50;99.90;;;;;;5115012;28;20539;-47
2022/12/10 08:01:09;;;;;;;26.47;23.33;;;3.50;99.90;;;;;;5114620;28;20221;-46
2022/12/10 08:03:34;;;;;;;29.00;23.20;;;3.50;99.90;;;;;;5113367;28;20437;-44
2022/12/10 08:06:04;;;;;;;31.73;25.83;;;3.60;99.90;;;;;;5113351;28;20418;-45
2022/12/10 08:08:30;;;;;;;29.70;24.53;;;3.60;99.90;;;;;;5112619;28;20589;-47
2022/12/10 08:10:59;;;;;;;26.67;23.33;;;3.60;99.90;;;;;;5111950;28;20457;-47
2022/12/10 08:13:25;;;;;;;30.47;24.37;;;3.70;99.90;;;;;;5112546;28;20227;-46
2022/12/10 08:15:52;;;;;;;28.80;24.47;;;3.70;63.50;;;;;;5112428;28;20416;-44
2022/12/10 08:18:17;;;;;;;32.97;25.93;;;3.70;46.40;;;;;;5112636;28;20168;-45
2022/12/10 08:20:43;;;;;;;28.17;22.40;;;3.80;1.50;;;;;;5094094;28;20748;-45
2022/12/10 08:23:08;;;;;;;30.73;25.30;;;3.80;1.00;;;;;;5113716;28;20176;-44
2022/12/10 08:25:36;;;;;;;29.53;23.83;;;3.90;1.00;;;;;;5117415;28;20530;-46
2022/12/10 08:28:02;;;;;;;28.87;24.00;;;3.90;1.00;;;;;;5117800;28;20303;-45
2022/12/10 08:30:28;;;;;;;27.63;23.73;;;4.00;1.00;;;;;;5116068;28;20464;-47
2022/12/10 08:32:54;;;;;;;29.57;24.50;;;4.00;1.00;;;;;;5116066;28;20513;-46
2022/12/10 08:35:20;;;;;;;29.23;23.00;;;4.00;1.00;;;;;;5115763;28;20439;-45
2022/12/10 08:37:46;;;;;;;25.20;22.23;;;4.10;1.00;;;;;;5116365;28;20172;-47
2022/12/10 08:40:11;;;;;;;27.13;23.17;;;4.10;1.00;;;;;;5116524;28;20481;-45
2022/12/10 08:42:37;;;;;;;30.47;24.80;;;4.20;99.90;;;;;;5115580;28;20180;-46
2022/12/10 08:45:04;;;;;;;27.33;23.70;;;4.30;99.90;;;;;;5117064;28;20221;-45
2022/12/10 08:47:30;;;;;;;28.67;24.00;;;4.30;99.90;;;;;;5118737;28;20417;-45
2022/12/10 08:49:55;;;;;;;34.07;26.73;;;4.40;99.90;;;;;;5117102;28;20568;-45
2022/12/10 08:52:21;;;;;;;29.70;24.23;;;4.40;99.90;;;;;;5116266;28;20175;-46
2022/12/10 08:54:46;;;;;;;29.17;24.27;;;4.40;99.90;;;;;;5115625;28;20160;-47
2022/12/10 08:57:12;;;;;;;29.73;25.20;;;4.50;45.70;;;;;;5097545;28;20250;-45
2022/12/10 08:59:38;;;;;;;34.70;27.17;;;4.50;1.00;;;;;;5096925;28;20592;-45
2022/12/10 09:02:03;;;;;;;30.20;25.60;;;4.60;1.00;;;;;;5115057;28;20179;-45
2022/12/10 09:04:29;;;;;;;33.80;27.27;;;4.60;1.00;;;;;;5115028;28;20256;-44
2022/12/10 09:06:55;;;;;;;31.17;26.93;;;4.70;1.00;;;;;;5113813;28;20183;-46
2022/12/10 09:09:20;;;;;;;36.40;27.27;;;4.70;1.00;;;;;;5098795;28;20192;-46
2022/12/10 09:11:46;;;;;;;33.80;27.37;;;4.70;1.00;;;;;;5097060;28;20227;-45
2022/12/10 09:14:12;;;;;;;33.50;26.80;;;4.80;99.90;;;;;;5096861;28;20282;-45
2022/12/10 09:16:39;;;;;;;34.77;27.03;;;4.70;99.90;;;;;;5098307;28;20169;-46
2022/12/10 09:19:05;;;;;;;31.90;26.40;;;4.80;99.90;;;;;;5094544;28;20426;-46
2022/12/10 09:21:31;;;;;;;31.40;26.37;;;4.80;99.90;;;;;;5094085;28;20415;-46
2022/12/10 09:23:58;;;;;;;30.00;24.87;;;4.80;99.90;;;;;;5094501;28;20899;-44
2022/12/10 09:26:24;;;;;;;30.47;25.37;;;4.80;99.90;;;;;;5095374;28;20732;-47
2022/12/10 09:28:50;;;;;;;29.67;25.43;;;4.80;99.90;;;;;;5095229;28;20430;-46
2022/12/10 09:31:17;;;;;;;32.57;26.77;;;4.80;99.90;;;;;;5076105;28;20465;-46
2022/12/10 09:33:43;;;;;;;30.20;24.07;;;4.80;99.90;;;;;;5095184;28;20466;-47
2022/12/10 09:36:12;;;;;;;30.80;24.60;;;4.80;99.90;;;;;;5096185;28;20706;-45
2022/12/10 09:38:40;;;;;;;31.40;25.93;;;4.80;99.90;;;;;;5096043;28;20429;-47
2022/12/10 09:41:33;;;;;;;33.83;26.70;;;4.80;99.90;;;;;;5096369;28;20489;-45
2022/12/10 09:44:01;;;;;;;29.70;25.13;;;4.80;91.10;;;;;;5079111;28;20430;-45
2022/12/10 09:46:48;;;;;;;30.67;25.30;;;4.80;71.10;;;;;;5097589;28;20406;-45
2022/12/10 09:49:23;;;;;;;28.40;25.30;;;4.80;49.30;;;;;;5079026;28;20708;-45
2022/12/10 09:51:49;;;;;;;29.30;24.37;;;4.80;30.90;;;;;;5095827;28;20478;-45
2022/12/10 09:54:19;;;;;;;29.17;25.07;;;4.90;13.80;;;;;;5078059;28;20423;-45
2022/12/10 09:56:45;;;;;;;27.90;24.63;;;4.90;1.00;;;;;;5077048;28;21017;-45
2022/12/10 09:59:21;;;;;;;28.97;24.70;;;4.90;1.00;;;;;;5076417;28;20469;-47
2022/12/10 10:01:50;;;;;;;26.90;21.60;;;4.90;1.00;;;;;;5094505;28;20493;-44
2022/12/10 10:04:16;;;;;;;28.90;24.20;;;4.90;1.00;;;;;;5078134;28;20422;-45
2022/12/10 10:06:43;;;;;;;28.43;25.10;;;5.00;1.00;;;;;;5092521;28;20422;-45
2022/12/10 10:09:13;;;;;;;28.23;23.27;;;5.00;1.00;;;;;;5073431;28;20734;-47
2022/12/10 10:11:39;;;;;;;26.37;23.10;;;5.00;1.00;;;;;;5072458;28;20486;-46
2022/12/10 10:14:13;;;;;;;26.07;23.30;;;5.00;1.00;;;;;;5093337;28;20439;-44
2022/12/10 10:16:57;;;;;;;28.90;23.73;;;5.10;1.00;;;;;;5076699;28;20404;-44
2022/12/10 10:19:29;;;;;;;26.97;23.37;;;5.10;1.00;;;;;;5094692;28;20442;-44
2022/12/10 10:21:54;;;;;;;29.73;24.83;;;5.20;1.00;;;;;;5095011;28;20503;-47
2022/12/10 10:24:31;;;;;;;29.73;24.20;;;5.20;1.00;;;;;;5078526;28;20904;-45
2022/12/10 10:26:58;;;;;;;27.27;23.10;;;5.20;1.00;;;;;;5096309;28;20183;-46
2022/12/10 10:29:26;;;;;;;26.10;22.57;;;5.30;1.00;;;;;;5077687;28;20426;-44
2022/12/10 10:32:30;;;;;;;28.17;22.80;;;5.30;1.00;;;;;;5094298;28;20422;-47
2022/12/10 10:34:58;;;;;;;26.27;22.70;;;5.40;1.00;;;;;;5091188;28;20426;-47
2022/12/10 10:37:30;;;;;;;28.23;23.90;;;5.40;1.00;;;;;;5093935;28;20688;-48
2022/12/10 10:39:57;;;;;;;24.77;21.87;;;5.40;1.00;;;;;;5077735;28;20681;-47
2022/12/10 10:42:34;;;;;;;27.20;23.53;;;5.50;1.00;;;;;;5076186;28;20425;-48
2022/12/10 10:45:06;;;;;;;28.87;23.83;;;5.50;99.90;;;;;;5094118;28;20804;-45
2022/12/10 10:47:33;;;;;;;24.10;20.90;;;5.60;99.90;;;;;;5075339;28;20702;-46
2022/12/10 10:49:59;;;;;;;26.60;23.70;;;5.80;99.90;;;;;;5094584;28;20940;-44
2022/12/10 10:52:38;;;;;;;25.03;21.43;;;5.80;99.90;;;;;;5076139;28;20472;-46
2022/12/10 10:55:04;;;;;;;28.43;21.90;;;5.90;99.90;;;;;;5092300;28;20418;-47
2022/12/10 10:57:37;;;;;;;23.40;20.87;;;5.90;99.90;;;;;;5094247;28;20418;-44
2022/12/10 11:00:18;;;;;;;23.13;19.83;;;5.90;99.90;;;;;;5073895;28;20448;-47
2022/12/10 11:02:44;;;;;;;23.50;20.67;;;5.90;99.90;;;;;;5093074;28;20490;-46
2022/12/10 11:05:25;;;;;;;25.57;20.30;;;5.90;99.90;;;;;;5075918;28;20517;-45
2022/12/10 11:08:05;;;;;;;23.40;19.97;;;5.90;99.90;;;;;;5074165;28;20180;-46
2022/12/10 11:10:31;;;;;;;23.90;20.73;;;6.00;99.90;;;;;;5092611;28;20915;-44
2022/12/10 11:13:06;;;;;;;24.37;21.03;;;6.00;99.90;;;;;;5067317;28;20492;-45
2022/12/10 11:15:35;;;;;;;25.07;20.87;;;6.10;99.90;;;;;;5095127;28;20402;-44
2022/12/10 11:18:02;;;;;;;22.87;20.37;;;6.10;99.90;;;;;;5095513;28;20632;-45
2022/12/10 11:20:33;;;;;;;23.40;20.80;;;6.10;99.90;;;;;;5096036;28;20414;-45
2022/12/10 11:23:01;;;;;;;22.87;20.40;;;6.20;99.90;;;;;;5095582;28;20415;-46
2022/12/10 11:25:58;;;;;;;24.47;20.50;;;6.20;99.90;;;;;;5095205;28;20497;-45
2022/12/10 11:28:48;;;;;;;23.60;19.60;;;6.20;99.90;;;;;;5085859;28;20529;-45
2022/12/10 11:31:52;;;;;;;25.40;21.20;;;6.30;93.50;;;;;;5096434;28;20465;-46
2022/12/10 11:34:37;;;;;;;22.50;20.00;;;6.20;76.60;;;;;;5094442;28;20476;-45
2022/12/10 11:37:21;;;;;;;22.20;18.90;;;6.20;72.90;;;;;;5094128;28;20414;-45
2022/12/10 11:40:04;;;;;;;21.90;19.37;;;6.30;71.40;;;;;;5088149;28;20505;-50
2022/12/10 11:42:42;;;;;;;24.60;20.23;;;6.30;67.00;;;;;;5092616;28;20697;-45
2022/12/10 11:45:28;;;;;;;24.30;21.43;;;6.30;59.90;;;;;;5093120;28;20414;-44
2022/12/10 11:48:41;;;;;;;22.13;19.80;;;6.40;55.30;;;;;;5091708;28;20465;-48
2022/12/10 11:51:12;;;;;;;24.30;19.37;;;6.40;46.90;;;;;;5010930;28;20484;-47
2022/12/10 11:54:01;;;;;;;22.13;19.10;;;6.50;35.90;;;;;;5075697;28;20438;-45
2022/12/10 11:56:39;;;;;;;25.70;21.57;;;6.50;28.50;;;;;;5093946;28;20425;-44
2022/12/10 11:59:31;;;;;;;28.80;22.80;;;6.60;19.70;;;;;;5097330;28;20494;-45
2022/12/10 12:02:35;;;;;;;7.10;6.13;;;6.60;11.70;;;;;;5096266;28;20851;-50
2022/12/10 12:05:33;;;;;;;11.73;9.57;;;8.20;1.00;;;;;;5067678;28;20426;-50
2022/12/10 12:08:07;;;;;;;12.03;10.70;;;9.40;1.00;;;;;;5097390;28;20503;-56
2022/12/10 12:10:50;;;;;;;13.33;9.33;;;10.40;1.00;;;;;;5097589;28;20472;-52
2022/12/10 12:13:25;;;;;;;11.50;8.83;;;11.10;99.90;;;;;;5095763;28;20560;-47
2022/12/10 12:15:54;;;;;;;10.63;9.53;;;11.80;99.90;;;;;;5098077;28;20402;-49
2022/12/10 12:18:33;;;;;;;10.53;9.40;;;12.40;1.00;;;;;;5095044;28;20469;-51
2022/12/10 12:21:03;;;;;;;10.93;9.67;;;12.90;64.20;;;;;;5078334;28;20503;-50
2022/12/10 12:23:44;;;;;;;15.60;11.43;;;13.30;7.30;;;;;;5096077;28;20461;-51
2022/12/10 12:26:15;;;;;;;14.23;11.73;;;13.60;81.70;;;;;;5097996;28;20738;-44
2022/12/10 12:28:46;;;;;;;18.13;16.27;;;13.60;99.90;;;;;;5078676;28;20426;-44
2022/12/10 12:31:17;;;;;;;25.70;22.87;;;13.30;4.00;;;;;;5079677;28;20545;-44
2022/12/10 12:33:48;;;;;;;33.40;27.10;;;12.70;99.90;;;;;;5080019;28;20434;-46
2022/12/10 12:36:43;;;;;;;32.17;27.30;;;12.00;99.90;;;;;;5079504;28;20430;-46
2022/12/10 12:39:38;;;;;;;29.10;26.00;;;11.20;42.00;;;;;;5057164;28;20434;-48
2022/12/10 12:42:27;;;;;;;28.23;25.17;;;10.60;3.70;;;;;;5078800;28;20835;-47
2022/12/10 12:45:03;;;;;;;39.43;29.97;;;10.00;1.00;;;;;;5080625;28;20537;-47
2022/12/10 12:47:34;;;;;;;33.00;27.80;;;9.50;1.00;;;;;;5080210;28;21065;-45
2022/12/10 12:50:00;;;;;;;36.10;27.33;;;9.10;1.00;;;;;;5080219;28;20732;-45
2022/12/10 12:52:42;;;;;;;31.77;25.07;;;8.70;1.00;;;;;;5079877;28;20406;-46
2022/12/10 12:55:22;;;;;;;27.13;23.17;;;8.40;1.00;;;;;;5097476;28;20421;-47
2022/12/10 12:58:03;;;;;;;26.03;23.30;;;8.10;1.00;;;;;;5079647;28;20475;-46
2022/12/10 13:00:29;;;;;;;28.30;23.80;;;7.90;1.00;;;;;;5096556;28;20833;-44
2022/12/10 13:03:39;;;;;;;26.70;23.83;;;7.70;1.00;;;;;;5077875;28;20716;-45
2022/12/10 13:06:24;;;;;;;30.17;26.20;;;7.60;1.00;;;;;;5101427;28;20469;-46
2022/12/10 13:09:12;;;;;;;27.47;23.20;;;7.50;1.00;;;;;;5113930;28;20449;-46